地図

経路データ

SID SEASON NUMBER BASIN SUBBASIN NAME ISO_TIME NATURE LAT LON WMO_WIND WMO_PRES WMO_AGENCY TRACK_TYPE DIST2LAND LANDFALL IFLAG USA_AGENCY USA_ATCF_ID USA_LAT USA_LON USA_RECORD USA_STATUS USA_WIND USA_PRES USA_SSHS USA_R34_NE USA_R34_SE USA_R34_SW USA_R34_NW USA_R50_NE USA_R50_SE USA_R50_SW USA_R50_NW USA_R64_NE USA_R64_SE USA_R64_SW USA_R64_NW USA_POCI USA_ROCI USA_RMW USA_EYE TOKYO_LAT TOKYO_LON TOKYO_GRADE TOKYO_WIND TOKYO_PRES TOKYO_R50_DIR TOKYO_R50_LONG TOKYO_R50_SHORT TOKYO_R30_DIR TOKYO_R30_LONG TOKYO_R30_SHORT TOKYO_LAND CMA_LAT CMA_LON CMA_CAT CMA_WIND CMA_PRES HKO_LAT HKO_LON HKO_CAT HKO_WIND HKO_PRES NEWDELHI_LAT NEWDELHI_LON NEWDELHI_GRADE NEWDELHI_WIND NEWDELHI_PRES NEWDELHI_CI NEWDELHI_DP NEWDELHI_POCI REUNION_LAT REUNION_LON REUNION_TYPE REUNION_WIND REUNION_PRES REUNION_TNUM REUNION_CI REUNION_RMW REUNION_R34_NE REUNION_R34_SE REUNION_R34_SW REUNION_R34_NW REUNION_R50_NE REUNION_R50_SE REUNION_R50_SW REUNION_R50_NW REUNION_R64_NE REUNION_R64_SE REUNION_R64_SW REUNION_R64_NW BOM_LAT BOM_LON BOM_TYPE BOM_WIND BOM_PRES BOM_TNUM BOM_CI BOM_RMW BOM_R34_NE BOM_R34_SE BOM_R34_SW BOM_R34_NW BOM_R50_NE BOM_R50_SE BOM_R50_SW BOM_R50_NW BOM_R64_NE BOM_R64_SE BOM_R64_SW BOM_R64_NW BOM_ROCI BOM_POCI BOM_EYE BOM_POS_METHOD BOM_PRES_METHOD NADI_LAT NADI_LON NADI_CAT NADI_WIND NADI_PRES WELLINGTON_LAT WELLINGTON_LON WELLINGTON_WIND WELLINGTON_PRES DS824_LAT DS824_LON DS824_STAGE DS824_WIND DS824_PRES TD9636_LAT TD9636_LON TD9636_STAGE TD9636_WIND TD9636_PRES TD9635_LAT TD9635_LON TD9635_WIND TD9635_PRES TD9635_ROCI NEUMANN_LAT NEUMANN_LON NEUMANN_CLASS NEUMANN_WIND NEUMANN_PRES MLC_LAT MLC_LON MLC_CLASS MLC_WIND MLC_PRES USA_GUST BOM_GUST BOM_GUST_PER REUNION_GUST REUNION_GUST_PER USA_SEAHGT USA_SEARAD_NE USA_SEARAD_SE USA_SEARAD_SW USA_SEARAD_NW STORM_SPEED STORM_DIR
1911293N10097 1911 66 NI BB NOT_NAMED 1911-10-20 00:00:00 TS 10.1000 96.7000 main 197 197 _________O____ -1 10.1000 96.7000 TC 64 8 301
1911293N10097 1911 66 NI BB NOT_NAMED 1911-10-20 03:00:00 TS 10.2934 96.3684 main 229 229 _________PO___ -1 10.3901 96.2026 TC 64 10.1000 96.7000 4 9 301
1911293N10097 1911 66 NI BB NOT_NAMED 1911-10-20 06:00:00 TS 10.5790 95.8995 main 284 284 _________OP___ -1 10.7000 95.7000 TC 64 10.3974 96.1987 4 11 303
1911293N10097 1911 66 NI BB NOT_NAMED 1911-10-20 09:00:00 TS 10.8981 95.4089 main 340 340 _________PP___ -1 11.0425 95.1925 TC 64 10.7055 95.6975 4 11 304
1911293N10097 1911 66 NI BB NOT_NAMED 1911-10-20 12:00:00 TS 11.2179 94.9488 main 399 398 _________OP___ -1 11.4000 94.7000 TC 64 11.0359 95.1977 4 11 306
1911293N10097 1911 66 NI BB NOT_NAMED 1911-10-20 15:00:00 TS 11.5675 94.4674 main 437 436 _________PO___ -1 11.7349 94.2348 TC 64 11.4000 94.7000 4 12 308
1911293N10097 1911 66 NI BB NOT_NAMED 1911-10-20 18:00:00 TS 11.9514 94.0046 main 427 390 _________OP___ -1 12.1000 93.8000 TC 64 11.8028 94.2092 4 12 313
1911293N10097 1911 66 NI BB NOT_NAMED 1911-10-20 21:00:00 TS 12.3938 93.5504 main 390 359 _________PP___ -1 12.5650 93.3552 TC 64 12.2226 93.7457 4 12 317
1911293N10097 1911 66 NI BB NOT_NAMED 1911-10-21 00:00:00 TS 12.8155 93.1671 main 359 337 _________OP___ -1 13.0000 93.0000 TC 64 12.6310 93.3342 4 10 320
1911293N10097 1911 66 NI BB NOT_NAMED 1911-10-21 03:00:00 TS 13.1399 92.9061 main 342 319 _________PO___ -1 13.2799 92.8122 TC 64 13.0000 93.0000 4 7 324
1911293N10097 1911 66 NI BB NOT_NAMED 1911-10-21 06:00:00 TS 13.3963 92.7290 main 325 313 _________OP___ -1 13.5000 92.7000 TC 64 13.2927 92.7581 4 6 327
1911293N10097 1911 66 NI BB NOT_NAMED 1911-10-21 09:00:00 TS 13.6473 92.5684 main 313 294 _________PP___ -1 13.7500 92.5425 TC 64 13.5445 92.5942 4 6 330
1911293N10097 1911 66 NI BB NOT_NAMED 1911-10-21 12:00:00 TS 13.8870 92.4417 main 302 287 _________OP___ -1 14.0000 92.4000 TC 64 13.7741 92.4833 4 5 335
1911293N10097 1911 66 NI BB NOT_NAMED 1911-10-21 15:00:00 TS 14.1250 92.3425 main 294 271 _________PO___ -1 14.2500 92.2850 TC 64 14.0000 92.4000 4 5 339
1911293N10097 1911 66 NI BB NOT_NAMED 1911-10-21 18:00:00 TS 14.3750 92.2456 main 279 265 _________OP___ -1 14.5000 92.2000 TC 64 14.2500 92.2912 4 5 341
1911293N10097 1911 66 NI BB NOT_NAMED 1911-10-21 21:00:00 TS 14.6250 92.1700 main 265 256 _________PP___ -1 14.7500 92.1350 TC 64 14.5000 92.2050 4 5 346
1911293N10097 1911 66 NI BB NOT_NAMED 1911-10-22 00:00:00 TS 14.8750 92.1206 main 256 246 _________OP___ -1 15.0000 92.1000 TC 64 14.7500 92.1412 4 5 352
1911293N10097 1911 66 NI BB NOT_NAMED 1911-10-22 03:00:00 TS 15.1250 92.0962 main 246 234 _________PO___ -1 15.2500 92.0925 TC 64 15.0000 92.1000 4 5 355
1911293N10097 1911 66 NI BB NOT_NAMED 1911-10-22 06:00:00 TS 15.3750 92.0811 main 234 229 _________OP___ -1 15.5000 92.1000 TC 64 15.2500 92.0622 4 5 355
1911293N10097 1911 66 NI BB NOT_NAMED 1911-10-22 09:00:00 TS 15.6250 92.0663 main 229 224 _________PP___ -1 15.7500 92.0851 TC 64 15.5000 92.0476 4 5 358
1911293N10097 1911 66 NI BB NOT_NAMED 1911-10-22 12:00:00 TS 15.8750 92.0796 main 224 224 _________OP___ -1 16.0000 92.1000 TC 64 15.7500 92.0592 4 5 8
1911293N10097 1911 66 NI BB NOT_NAMED 1911-10-22 15:00:00 TS 16.1250 92.1425 main 224 214 _________PO___ -1 16.2500 92.1850 TC 64 16.0000 92.1000 4 5 17
1911293N10097 1911 66 NI BB NOT_NAMED 1911-10-22 18:00:00 TS 16.3572 92.2265 main 218 207 _________OP___ -1 16.5000 92.3000 TC 64 16.2501 92.1714 4 5 20
1911293N10097 1911 66 NI BB NOT_NAMED 1911-10-22 21:00:00 TS 16.6001 92.3223 main 213 203 _________PP___ -1 16.7500 92.4050 TC 64 16.5001 92.2672 4 5 21
1911293N10097 1911 66 NI BB NOT_NAMED 1911-10-23 00:00:00 TS 16.8334 92.4196 main 205 196 _________OP___ -1 17.0000 92.5000 TC 64 16.7501 92.3794 4 4 23
1911293N10097 1911 66 NI BB NOT_NAMED 1911-10-23 03:00:00 NR 17.0000 92.5000 main 199 __________O___ -1 TC 17.0000 92.5000 4 4 26

IBTrACS Databaseについて

本データベースは、米国NOAAが公開する1842年以降の世界の熱帯低気圧のベストトラックデータアーカイブInternational Best Track Archive for Climate Stewardship (IBTrACS)を、ウェブで閲覧しやすい形式に変換したものです。

最終更新日:2021-10-19